Ora Direzione Vento Velocita' Vento Media Vento Raffica Max. Temperatura Wind Chill Pioggia Pressione
18:28:49.07 °(N)4.06 Kts5.97 Kts23.8 Kts29.2 °C31.55 °C0.0 mm1010.5 Hpa
18:07:55.050 °(NE)3.5 Kts5.27 Kts23.8 Kts30.7 °C33.26 °C0.0 mm1012.4 Hpa
17:47:54.069 °(ENE)9.1 Kts6.81 Kts23.8 Kts30.7 °C33.45 °C0.0 mm1011.1 Hpa
17:28:08.082 °(E)11.2 Kts8.91 Kts23.8 Kts31.1 °C34.0 °C0.0 mm1011.2 Hpa
17:08:12.057 °(ENE)8.82 Kts8.72 Kts23.8 Kts30.0 °C32.58 °C0.0 mm1011.8 Hpa
16:48:29.018 °(NNE)5.88 Kts9.1 Kts23.8 Kts31.2 °C33.97 °C0.0 mm1011.1 Hpa
16:28:17.050 °(NE)8.4 Kts8.26 Kts23.8 Kts32.7 °C35.89 °C0.0 mm1010.8 Hpa
16:07:47.034 °(NE)8.96 Kts8.21 Kts23.8 Kts34.5 °C38.14 °C0.0 mm1011.2 Hpa
15:47:54.076 °(ENE)9.1 Kts9.38 Kts23.8 Kts34.9 °C38.66 °C0.0 mm1013.5 Hpa
15:27:52.064 °(ENE)7.0 Kts7.04 Kts23.8 Kts35.0 °C38.6 °C0.0 mm1012.6 Hpa
15:08:40.030 °(NNE)7.7 Kts8.68 Kts23.8 Kts34.2 °C37.7 °C0.0 mm1010.3 Hpa
14:48:24.064 °(ENE)10.22 Kts11.1 Kts23.8 Kts33.0 °C36.36 °C0.0 mm1011.0 Hpa
14:28:36.045 °(NE)8.54 Kts10.12 Kts23.8 Kts34.2 °C37.77 °C0.0 mm1009.5 Hpa
14:08:12.088 °(E)16.24 Kts11.2 Kts23.8 Kts33.0 °C36.56 °C0.0 mm1012.0 Hpa
13:47:42.0110 °(ESE)17.22 Kts13.44 Kts23.8 Kts30.7 °C33.58 °C0.0 mm1010.6 Hpa
13:28:47.0152 °(SSE)18.2 Kts17.26 Kts23.8 Kts30.8 °C33.74 °C0.0 mm1010.6 Hpa
13:08:34.0128 °(SE)9.38 Kts9.38 Kts23.8 Kts31.2 °C34.07 °C0.0 mm1012.1 Hpa
12:48:13.0107 °(ESE)12.04 Kts14.88 Kts23.8 Kts31.2 °C34.14 °C0.0 mm1010.8 Hpa
12:27:47.0147 °(SSE)12.04 Kts16.8 Kts23.8 Kts30.3 °C33.0 °C0.0 mm1011.5 Hpa
12:07:30.0121 °(ESE)13.86 Kts15.82 Kts23.8 Kts29.7 °C32.25 °C0.0 mm1011.3 Hpa